createdAt,value
2022-12-20T00:00:18.111Z,101424.61
2022-12-20T00:02:47.940Z,101419.19
2022-12-20T00:05:17.618Z,101423.97
2022-12-20T00:07:47.372Z,101410.13
2022-12-20T00:10:17.191Z,101417.78
2022-12-20T00:12:47.035Z,101419.78
2022-12-20T00:15:17.511Z,101417.75
2022-12-20T00:17:47.324Z,101417.75
2022-12-20T00:20:17.219Z,101423.00
2022-12-20T00:22:47.019Z,101420.40
2022-12-20T00:25:16.935Z,101419.16
2022-12-20T00:27:46.745Z,101421.16
2022-12-20T00:30:17.186Z,101423.73
2022-12-20T00:32:47.487Z,101415.22
2022-12-20T00:35:17.012Z,101410.72
2022-12-20T00:37:46.763Z,101400.45
2022-12-20T00:40:17.545Z,101410.00
2022-12-20T00:42:47.603Z,101415.66
2022-12-20T00:45:17.533Z,101407.61
2022-12-20T00:47:47.290Z,101403.89
2022-12-20T00:50:16.856Z,101403.89
2022-12-20T00:52:46.608Z,101399.97
2022-12-20T00:55:16.481Z,101392.02
2022-12-20T00:57:46.276Z,101400.63
2022-12-20T01:00:17.956Z,101400.88
2022-12-20T01:02:48.995Z,101392.08
2022-12-20T01:05:19.025Z,101392.08
2022-12-20T01:07:48.750Z,101381.58
2022-12-20T01:10:18.650Z,101382.02
2022-12-20T01:12:48.458Z,101377.43
2022-12-20T01:15:18.794Z,101383.63
2022-12-20T01:17:48.751Z,101390.25
2022-12-20T01:20:18.760Z,101388.04
2022-12-20T01:22:48.513Z,101388.63
2022-12-20T01:25:18.253Z,101386.62
2022-12-20T01:27:47.968Z,101390.08
2022-12-20T01:30:17.484Z,101392.72
2022-12-20T01:32:47.533Z,101391.77
2022-12-20T01:35:17.356Z,101401.67
2022-12-20T01:37:47.089Z,101396.56
2022-12-20T01:40:17.519Z,101403.23
2022-12-20T01:42:47.548Z,101414.10
2022-12-20T01:45:20.423Z,101403.10
2022-12-20T01:47:49.895Z,101403.05
2022-12-20T01:50:19.488Z,101389.80
2022-12-20T01:52:49.761Z,101390.96
2022-12-20T01:55:23.193Z,101390.96
2022-12-20T01:57:56.011Z,101396.55
2022-12-20T02:00:26.184Z,101402.81
2022-12-20T02:02:56.830Z,101398.69
2022-12-20T02:05:26.544Z,101402.66
2022-12-20T02:07:58.133Z,101404.91
2022-12-20T02:10:30.624Z,101383.75
2022-12-20T02:13:03.386Z,101383.06
2022-12-20T02:15:42.377Z,101377.61
2022-12-20T02:18:35.965Z,101364.37
2022-12-20T02:21:26.138Z,101360.84
2022-12-20T02:24:24.471Z,101339.92
2022-12-20T02:27:22.522Z,101337.28
2022-12-20T02:30:13.106Z,101347.59
2022-12-20T02:32:58.061Z,101347.59
2022-12-20T02:35:31.179Z,101340.12
2022-12-20T02:38:03.789Z,101342.52
2022-12-20T02:40:39.276Z,101335.95
2022-12-20T02:43:29.089Z,101334.80
2022-12-20T02:46:01.904Z,101338.55
2022-12-20T02:48:35.229Z,101332.47
2022-12-20T02:51:06.713Z,101327.45
2022-12-20T02:53:38.178Z,101328.37
2022-12-20T02:56:19.461Z,101328.97
2022-12-20T02:58:58.143Z,101328.97
2022-12-20T03:01:43.176Z,101328.09
2022-12-20T03:04:14.412Z,101329.54
2022-12-20T03:06:58.785Z,101321.95
2022-12-20T03:09:31.153Z,101323.76
2022-12-20T03:12:01.212Z,101320.43
2022-12-20T03:14:32.152Z,101320.43
2022-12-20T03:17:02.519Z,101322.55
2022-12-20T03:19:32.886Z,101328.89
2022-12-20T03:24:47.094Z,101301.86
2022-12-20T03:27:17.038Z,101309.52
2022-12-20T03:29:46.947Z,101316.54
2022-12-20T03:32:17.272Z,101316.93
2022-12-20T03:34:47.231Z,101314.01
2022-12-20T03:37:17.800Z,101322.06
2022-12-20T03:39:47.666Z,101334.27
2022-12-20T03:42:17.376Z,101327.53
2022-12-20T03:44:47.394Z,101309.55
2022-12-20T03:47:17.166Z,101306.34
2022-12-20T03:49:48.707Z,101306.74
2022-12-20T03:52:18.706Z,101299.73
2022-12-20T03:54:49.675Z,101292.45
2022-12-20T03:57:21.091Z,101305.36
2022-12-20T03:59:54.123Z,101304.64
2022-12-20T04:02:25.053Z,101320.90
2022-12-20T04:04:56.482Z,101312.70
2022-12-20T04:07:26.186Z,101314.58
2022-12-20T04:09:56.015Z,101309.80
2022-12-20T04:12:25.483Z,101300.45
2022-12-20T04:14:55.355Z,101286.88
2022-12-20T04:17:25.148Z,101290.98
2022-12-20T04:19:55.145Z,101293.83
2022-12-20T04:22:25.203Z,101294.27
2022-12-20T04:24:56.653Z,101287.00
2022-12-20T04:27:28.193Z,101288.67
2022-12-20T04:29:58.061Z,101295.91
2022-12-20T04:32:27.891Z,101295.91
2022-12-20T04:34:57.661Z,101296.44
2022-12-20T04:37:27.143Z,101292.98
2022-12-20T04:39:58.291Z,101291.09
2022-12-20T04:42:32.492Z,101276.16
2022-12-20T04:45:04.166Z,101276.16
2022-12-20T04:47:34.335Z,101283.83
2022-12-20T04:50:04.421Z,101278.32
2022-12-20T04:52:51.817Z,101278.32
2022-12-20T04:55:22.972Z,101275.62
2022-12-20T04:57:52.734Z,101279.45
2022-12-20T05:00:22.784Z,101266.23
2022-12-20T05:02:54.449Z,101282.10
2022-12-20T05:05:25.994Z,101277.37
2022-12-20T05:07:56.589Z,101282.31
2022-12-20T05:10:26.403Z,101278.25
2022-12-20T05:12:56.566Z,101275.34
2022-12-20T05:15:28.283Z,101289.85
2022-12-20T05:17:59.652Z,101272.72
2022-12-20T05:20:31.965Z,101271.47
2022-12-20T05:23:19.604Z,101276.47
2022-12-20T05:26:09.802Z,101265.59
2022-12-20T05:28:40.043Z,101263.13
2022-12-20T05:31:09.847Z,101255.70
2022-12-20T05:33:40.343Z,101251.24
2022-12-20T05:36:12.083Z,101247.70
2022-12-20T05:38:41.956Z,101247.70
2022-12-20T05:41:13.745Z,101228.96
2022-12-20T05:43:44.091Z,101229.63
2022-12-20T05:46:14.492Z,101230.30
2022-12-20T05:48:45.911Z,101232.92
2022-12-20T05:51:15.925Z,101228.68
2022-12-20T05:53:47.728Z,101216.06
2022-12-20T05:56:18.936Z,101210.24
2022-12-20T05:58:49.949Z,101226.20
2022-12-20T06:01:20.510Z,101210.21
2022-12-20T06:03:52.750Z,101215.08
2022-12-20T06:06:23.386Z,101214.77
2022-12-20T06:08:53.208Z,101213.89
2022-12-20T06:11:29.820Z,101202.56
2022-12-20T06:13:58.252Z,101212.98
2022-12-20T06:16:28.546Z,101211.71
2022-12-20T06:19:00.598Z,101204.59
2022-12-20T06:21:32.098Z,101203.66
2022-12-20T06:24:02.142Z,101195.81
2022-12-20T06:26:34.009Z,101177.83
2022-12-20T06:29:08.990Z,101173.44
2022-12-20T06:31:43.480Z,101171.49
2022-12-20T06:34:13.275Z,101172.75
2022-12-20T06:36:44.509Z,101166.55
2022-12-20T06:39:16.283Z,101171.52
2022-12-20T06:41:47.835Z,101174.66
2022-12-20T06:44:17.514Z,101178.95
2022-12-20T06:46:47.311Z,101178.67
2022-12-20T06:49:17.336Z,101172.09
2022-12-20T06:51:47.161Z,101183.97
2022-12-20T06:54:17.707Z,101174.33
2022-12-20T06:56:47.435Z,101185.40
2022-12-20T06:59:18.344Z,101178.11
2022-12-20T07:01:48.336Z,101173.39
2022-12-20T07:04:17.823Z,101180.39
2022-12-20T07:06:47.565Z,101187.33
2022-12-20T07:09:18.135Z,101182.95
2022-12-20T07:11:47.880Z,101174.23
2022-12-20T07:14:17.600Z,101181.06
2022-12-20T07:16:47.521Z,101177.59
2022-12-20T07:19:18.096Z,101180.33
2022-12-20T07:21:48.709Z,101168.95
2022-12-20T07:24:18.285Z,101190.20
2022-12-20T07:26:48.135Z,101184.38
2022-12-20T07:29:17.868Z,101176.05
2022-12-20T07:31:47.820Z,101176.05
2022-12-20T07:34:17.542Z,101177.14
2022-12-20T07:36:47.329Z,101166.34
2022-12-20T07:39:19.237Z,101169.84
2022-12-20T07:41:48.999Z,101175.48
2022-12-20T07:44:19.189Z,101175.08
2022-12-20T07:46:49.151Z,101169.45
2022-12-20T07:49:18.951Z,101171.32
2022-12-20T07:51:57.138Z,101177.98
2022-12-20T07:54:30.265Z,101183.12
2022-12-20T07:57:02.845Z,101189.47
2022-12-20T07:59:38.854Z,101192.52
2022-12-20T08:02:12.050Z,101192.52
2022-12-20T08:04:42.570Z,101189.92
2022-12-20T08:07:13.141Z,101196.78
2022-12-20T08:09:45.281Z,101204.19
2022-12-20T08:12:17.630Z,101203.45
2022-12-20T08:14:47.447Z,101205.40
2022-12-20T08:17:17.306Z,101201.66
2022-12-20T08:19:47.501Z,101196.00
2022-12-20T08:22:17.259Z,101185.62
2022-12-20T08:24:47.138Z,101194.16
2022-12-20T08:27:16.991Z,101192.54
2022-12-20T08:29:47.142Z,101189.89
2022-12-20T08:32:16.725Z,101189.89
2022-12-20T08:34:48.353Z,101200.31
2022-12-20T08:37:18.686Z,101200.31
2022-12-20T08:39:48.484Z,101201.13
2022-12-20T08:42:18.276Z,101196.10
2022-12-20T08:44:47.997Z,101192.91
2022-12-20T08:47:17.723Z,101192.84
2022-12-20T08:49:48.266Z,101188.30
2022-12-20T08:52:17.831Z,101195.38
2022-12-20T08:54:47.931Z,101185.34
2022-12-20T08:57:17.783Z,101187.30
2022-12-20T08:59:47.305Z,101196.84
2022-12-20T09:02:17.366Z,101188.81
2022-12-20T09:04:47.547Z,101198.38
2022-12-20T09:07:18.440Z,101193.84
2022-12-20T09:09:48.299Z,101201.19
2022-12-20T09:12:17.872Z,101195.11
2022-12-20T09:14:47.707Z,101194.94
2022-12-20T09:17:17.482Z,101187.17
2022-12-20T09:19:47.306Z,101191.91
2022-12-20T09:22:16.855Z,101170.95
2022-12-20T09:24:46.611Z,101182.45
2022-12-20T09:27:16.410Z,101185.81
2022-12-20T09:29:46.228Z,101180.09
2022-12-20T09:32:16.225Z,101179.55
2022-12-20T09:34:47.356Z,101180.80
2022-12-20T09:37:17.097Z,101181.18
2022-12-20T09:39:48.374Z,101180.09
2022-12-20T09:42:20.900Z,101179.30
2022-12-20T09:44:50.920Z,101178.67
2022-12-20T09:47:24.081Z,101190.64
2022-12-20T09:49:56.907Z,101186.39
2022-12-20T09:52:47.631Z,101179.25
2022-12-20T09:55:35.229Z,101169.53
2022-12-20T09:58:15.155Z,101175.32
2022-12-20T10:00:53.594Z,101176.42
2022-12-20T10:03:25.441Z,101185.55
2022-12-20T10:05:57.736Z,101175.15
2022-12-20T10:08:48.650Z,101180.78
2022-12-20T10:11:48.048Z,101174.41
2022-12-20T10:14:31.095Z,101178.47
2022-12-20T10:17:03.876Z,101175.21
2022-12-20T10:20:01.974Z,101167.80
2022-12-20T10:22:43.519Z,101165.23
2022-12-20T10:25:18.888Z,101164.70
2022-12-20T10:27:50.613Z,101163.97
2022-12-20T10:30:23.385Z,101166.27
2022-12-20T10:32:56.254Z,101161.61
2022-12-20T10:35:29.751Z,101147.53
2022-12-20T10:38:10.153Z,101158.77
2022-12-20T10:41:10.628Z,101154.19
2022-12-20T10:43:17.248Z,101166.70
2022-12-20T10:46:01.696Z,101163.84
2022-12-20T10:48:34.722Z,101165.09
2022-12-20T10:51:16.089Z,101153.83
2022-12-20T10:54:01.879Z,101152.77
2022-12-20T10:56:37.744Z,101147.47
2022-12-20T10:59:22.155Z,101154.61
2022-12-20T11:01:52.322Z,101145.95
2022-12-20T11:04:38.535Z,101138.33
2022-12-20T11:07:25.966Z,101131.77
2022-12-20T11:10:16.643Z,101136.64
2022-12-20T11:12:59.960Z,101141.12
2022-12-20T11:15:35.225Z,101130.16
2022-12-20T11:21:28.274Z,101135.93
2022-12-20T11:24:01.688Z,101136.55
2022-12-20T11:26:50.193Z,101133.94
2022-12-20T11:29:45.408Z,101127.73
2022-12-20T11:32:22.078Z,101120.39
2022-12-20T11:35:12.548Z,101117.10
2022-12-20T11:38:12.497Z,101116.50
2022-12-20T11:41:02.648Z,101118.59
2022-12-20T11:44:23.400Z,101112.97
2022-12-20T11:46:49.873Z,101117.23
2022-12-20T11:49:38.925Z,101107.86
2022-12-20T11:55:31.120Z,101094.97
2022-12-20T11:58:18.523Z,101101.37
2022-12-20T12:00:42.798Z,101095.98
2022-12-20T12:03:17.057Z,101100.32
2022-12-20T12:05:49.735Z,101100.32
2022-12-20T12:08:29.049Z,101096.83
2022-12-20T12:11:04.278Z,101095.25
2022-12-20T12:13:37.153Z,101098.43
2022-12-20T12:16:23.140Z,101102.95
2022-12-20T12:18:52.968Z,101093.91
2022-12-20T12:21:25.760Z,101084.32
2022-12-20T12:24:30.138Z,101084.95
2022-12-20T12:27:03.074Z,101084.95
2022-12-20T12:29:35.210Z,101092.31
2022-12-20T12:32:10.782Z,101091.12
2022-12-20T12:35:07.359Z,101088.84
2022-12-20T12:37:57.321Z,101078.86
2022-12-20T12:40:43.905Z,101080.51
2022-12-20T12:43:23.304Z,101073.58
2022-12-20T12:45:59.778Z,101079.73
2022-12-20T12:48:44.497Z,101079.73
2022-12-20T12:51:16.357Z,101077.49
2022-12-20T12:53:51.406Z,101081.45
2022-12-20T12:56:46.433Z,101081.70
2022-12-20T12:59:13.039Z,101077.98
2022-12-20T13:01:57.424Z,101076.30
2022-12-20T13:04:30.599Z,101089.44
2022-12-20T13:07:03.210Z,101077.95
2022-12-20T13:09:36.389Z,101077.95
2022-12-20T13:12:40.799Z,101080.72
2022-12-20T13:15:25.008Z,101082.02
2022-12-20T13:18:02.768Z,101084.25
2022-12-20T13:20:35.105Z,101082.08
2022-12-20T13:23:14.116Z,101076.76
2022-12-20T13:25:49.112Z,101069.80
2022-12-20T13:28:27.657Z,101076.41
2022-12-20T13:31:08.678Z,101071.83
2022-12-20T13:33:46.210Z,101073.96
2022-12-20T13:36:33.956Z,101072.91
2022-12-20T13:39:07.151Z,101072.91
2022-12-20T13:41:39.802Z,101073.53
2022-12-20T13:44:13.025Z,101082.47
2022-12-20T13:46:57.207Z,101072.77
2022-12-20T13:49:41.878Z,101076.44
2022-12-20T13:52:19.701Z,101076.48
2022-12-20T13:54:52.600Z,101076.48
2022-12-20T13:57:41.927Z,101068.98
2022-12-20T14:00:20.378Z,101068.81
2022-12-20T14:02:50.442Z,101065.83
2022-12-20T14:05:28.421Z,101073.26
2022-12-20T14:08:03.460Z,101065.73
2022-12-20T14:10:35.224Z,101072.03
2022-12-20T14:13:06.623Z,101072.03
2022-12-20T14:15:36.726Z,101076.83
2022-12-20T14:18:09.646Z,101076.23
2022-12-20T14:20:39.538Z,101071.79
2022-12-20T14:23:30.068Z,101071.95
2022-12-20T14:26:02.491Z,101067.59
2022-12-20T14:28:47.287Z,101074.03
2022-12-20T14:31:41.244Z,101067.55
2022-12-20T14:34:15.035Z,101072.98
2022-12-20T14:36:50.130Z,101071.47
2022-12-20T14:39:30.776Z,101077.49
2022-12-20T14:42:05.307Z,101065.94
2022-12-20T14:44:35.690Z,101065.14
2022-12-20T14:47:15.425Z,101069.20
2022-12-20T14:49:56.838Z,101071.40
2022-12-20T14:52:40.571Z,101071.41
2022-12-20T14:55:18.642Z,101067.06
2022-12-20T14:57:53.966Z,101063.59
2022-12-20T15:00:27.531Z,101066.02
2022-12-20T15:03:01.278Z,101047.81
2022-12-20T15:05:40.429Z,101058.70
2022-12-20T15:08:27.338Z,101050.40
2022-12-20T15:11:03.836Z,101055.34
2022-12-20T15:13:38.938Z,101055.82
2022-12-20T15:16:18.630Z,101053.41
2022-12-20T15:18:49.564Z,101050.02
2022-12-20T15:21:28.263Z,101038.84
2022-12-20T15:24:00.837Z,101034.89
2022-12-20T15:26:31.439Z,101034.89
2022-12-20T15:29:01.736Z,101038.92
2022-12-20T15:31:34.349Z,101044.13
2022-12-20T15:34:16.257Z,101044.13
2022-12-20T15:36:46.749Z,101027.64
2022-12-20T15:39:18.225Z,101044.03
2022-12-20T15:41:50.828Z,101038.39
2022-12-20T15:44:28.590Z,101041.13
2022-12-20T15:46:58.509Z,101044.06
2022-12-20T15:49:30.827Z,101044.84
2022-12-20T15:52:01.025Z,101046.06
2022-12-20T15:54:33.580Z,101040.56
2022-12-20T15:57:07.920Z,101041.75
2022-12-20T16:02:23.120Z,101043.61
2022-12-20T16:04:55.073Z,101044.66
2022-12-20T16:07:24.892Z,101046.19
2022-12-20T16:09:54.692Z,101045.46
2022-12-20T16:12:27.461Z,101047.48
2022-12-20T16:14:57.381Z,101051.31
2022-12-20T16:17:27.150Z,101055.72
2022-12-20T16:19:56.692Z,101050.73
2022-12-20T16:22:26.835Z,101054.64
2022-12-20T16:24:56.682Z,101055.52
2022-12-20T16:27:26.472Z,101060.30
2022-12-20T16:29:56.229Z,101049.10
2022-12-20T16:32:25.777Z,101049.10
2022-12-20T16:34:55.537Z,101055.72
2022-12-20T16:37:25.262Z,101045.55
2022-12-20T16:39:56.067Z,101045.55
2022-12-20T16:42:25.668Z,101053.84
2022-12-20T16:44:55.762Z,101055.84
2022-12-20T16:47:25.485Z,101060.98
2022-12-20T16:49:55.254Z,101069.08
2022-12-20T16:52:25.038Z,101068.16
2022-12-20T16:54:55.550Z,101064.14
2022-12-20T16:57:25.320Z,101067.48
2022-12-20T16:59:55.086Z,101062.94
2022-12-20T17:02:33.262Z,101062.98
2022-12-20T17:05:03.161Z,101068.23
2022-12-20T17:07:37.943Z,101064.55
2022-12-20T17:10:11.507Z,101059.36
2022-12-20T17:12:41.637Z,101058.09
2022-12-20T17:15:17.395Z,101050.28
2022-12-20T17:17:47.245Z,101050.84
2022-12-20T17:20:21.533Z,101050.37
2022-12-20T17:22:53.922Z,101046.02
2022-12-20T17:25:29.886Z,101048.33
2022-12-20T17:27:59.372Z,101054.75
2022-12-20T17:30:29.201Z,101044.75
2022-12-20T17:32:59.027Z,101042.06
2022-12-20T17:35:32.344Z,101045.86
2022-12-20T17:38:02.698Z,101042.62
2022-12-20T17:40:32.333Z,101034.89
2022-12-20T17:43:02.170Z,101035.47
2022-12-20T17:45:36.348Z,101033.11
2022-12-20T17:48:08.579Z,101034.67
2022-12-20T17:50:38.479Z,101040.18
2022-12-20T17:53:10.008Z,101042.91
2022-12-20T17:55:39.740Z,101043.33
2022-12-20T17:58:10.277Z,101043.33
2022-12-20T18:00:40.341Z,101050.78
2022-12-20T18:03:30.145Z,101046.83
2022-12-20T18:05:43.184Z,101047.77
2022-12-20T18:08:14.027Z,101043.81
2022-12-20T18:10:45.661Z,101047.53
2022-12-20T18:13:15.490Z,101041.55
2022-12-20T18:15:45.264Z,101040.91
2022-12-20T18:18:16.291Z,101052.50
2022-12-20T18:20:46.104Z,101050.40
2022-12-20T18:23:15.928Z,101066.84
2022-12-20T18:25:45.868Z,101056.00
2022-12-20T18:28:15.579Z,101056.00
2022-12-20T18:30:45.638Z,101053.02
2022-12-20T18:33:15.422Z,101049.56
2022-12-20T18:35:45.496Z,101063.82
2022-12-20T18:38:16.444Z,101055.02
2022-12-20T18:40:46.559Z,101060.37
2022-12-20T18:43:16.599Z,101062.09
2022-12-20T18:45:46.422Z,101062.09
2022-12-20T18:48:16.362Z,101058.16
2022-12-20T18:50:46.398Z,101049.97
2022-12-20T18:53:16.155Z,101047.86
2022-12-20T18:55:45.923Z,101053.27
2022-12-20T18:58:15.451Z,101048.05
2022-12-20T19:00:45.387Z,101048.05
2022-12-20T19:03:15.483Z,101045.70
2022-12-20T19:05:45.321Z,101049.59
2022-12-20T19:08:15.543Z,101052.67
2022-12-20T19:10:45.468Z,101050.86
2022-12-20T19:13:17.300Z,101053.02
2022-12-20T19:15:47.710Z,101047.45
2022-12-20T19:18:17.622Z,101059.37
2022-12-20T19:20:47.363Z,101059.37
2022-12-20T19:23:17.130Z,101059.57
2022-12-20T19:25:46.939Z,101061.87
2022-12-20T19:28:16.691Z,101052.67
2022-12-20T19:30:46.557Z,101047.77
2022-12-20T19:33:16.278Z,101052.17
2022-12-20T19:35:55.441Z,101053.89
2022-12-20T19:38:17.842Z,101059.44
2022-12-20T19:40:53.429Z,101060.56
2022-12-20T19:43:23.216Z,101056.20
2022-12-20T19:45:53.484Z,101056.95
2022-12-20T19:48:23.398Z,101057.11
2022-12-20T19:50:54.363Z,101064.66
2022-12-20T19:53:24.115Z,101065.66
2022-12-20T19:55:54.249Z,101062.92
2022-12-20T19:58:23.937Z,101061.53
2022-12-20T20:00:53.933Z,101067.22
2022-12-20T20:03:24.335Z,101066.03
2022-12-20T20:05:55.622Z,101067.41
2022-12-20T20:08:25.797Z,101059.98
2022-12-20T20:10:57.200Z,101067.23
2022-12-20T20:13:28.632Z,101066.81
2022-12-20T20:16:01.651Z,101075.60
2022-12-20T20:18:33.070Z,101077.25
2022-12-20T20:21:11.770Z,101070.84
2022-12-20T20:23:42.223Z,101069.48
2022-12-20T20:26:17.775Z,101072.53
2022-12-20T20:28:47.217Z,101077.30
2022-12-20T20:31:18.296Z,101072.73
2022-12-20T20:33:48.748Z,101067.33
2022-12-20T20:36:21.635Z,101072.73
2022-12-20T20:38:52.544Z,101066.02
2022-12-20T20:41:22.591Z,101072.84
2022-12-20T20:43:52.349Z,101071.95
2022-12-20T20:46:22.607Z,101078.15
2022-12-20T20:48:52.451Z,101066.23
2022-12-20T20:51:22.501Z,101059.67
2022-12-20T20:53:52.573Z,101055.42
2022-12-20T20:56:23.018Z,101059.60
2022-12-20T20:58:57.636Z,101068.84
2022-12-20T21:01:25.333Z,101057.45
2022-12-20T21:03:55.275Z,101058.97
2022-12-20T21:06:42.029Z,101061.28
2022-12-20T21:08:56.737Z,101069.91
2022-12-20T21:11:26.571Z,101077.04
2022-12-20T21:13:56.593Z,101084.66
2022-12-20T21:16:26.488Z,101082.41
2022-12-20T21:18:59.166Z,101090.53
2022-12-20T21:21:29.798Z,101089.47
2022-12-20T21:23:59.584Z,101087.80
2022-12-20T21:26:29.640Z,101092.11
2022-12-20T21:29:00.984Z,101095.66
2022-12-20T21:31:31.468Z,101092.16
2022-12-20T21:34:01.240Z,101083.86
2022-12-20T21:36:30.964Z,101083.86
2022-12-20T21:39:00.791Z,101089.91
2022-12-20T21:41:30.553Z,101087.48
2022-12-20T21:44:01.564Z,101086.11
2022-12-20T21:46:32.448Z,101083.97
2022-12-20T21:49:02.044Z,101091.00
2022-12-20T21:51:32.113Z,101080.83
2022-12-20T21:54:03.208Z,101081.76
2022-12-20T21:56:35.574Z,101079.13
2022-12-20T21:59:05.791Z,101091.69
2022-12-20T22:01:35.723Z,101086.95
2022-12-20T22:04:07.616Z,101092.72
2022-12-20T22:06:37.429Z,101092.83
2022-12-20T22:09:09.630Z,101091.37
2022-12-20T22:11:40.508Z,101094.20
2022-12-20T22:14:13.618Z,101092.25
2022-12-20T22:16:43.776Z,101086.84
2022-12-20T22:19:15.382Z,101094.66
2022-12-20T22:21:45.193Z,101097.30
2022-12-20T22:24:14.650Z,101103.23
2022-12-20T22:26:44.573Z,101100.19
2022-12-20T22:29:14.333Z,101096.71
2022-12-20T22:31:44.220Z,101095.09
2022-12-20T22:34:15.249Z,101099.98
2022-12-20T22:36:45.000Z,101109.69
2022-12-20T22:39:14.749Z,101110.02
2022-12-20T22:41:44.697Z,101114.77
2022-12-20T22:44:14.997Z,101115.16
2022-12-20T22:46:44.745Z,101110.42
2022-12-20T22:49:20.276Z,101101.66
2022-12-20T22:52:02.693Z,101092.41
2022-12-20T22:54:21.220Z,101087.32
2022-12-20T22:56:50.965Z,101106.38
2022-12-20T22:59:20.802Z,101106.38
2022-12-20T23:01:50.529Z,101099.61
2022-12-20T23:04:20.577Z,101086.91
2022-12-20T23:06:50.721Z,101096.62
2022-12-20T23:09:20.551Z,101097.03
2022-12-20T23:12:08.097Z,101102.32
2022-12-20T23:15:00.194Z,101110.77
2022-12-20T23:17:26.839Z,101108.59
2022-12-20T23:20:14.398Z,101105.03
2022-12-20T23:22:45.036Z,101102.75
2022-12-20T23:25:18.054Z,101112.98
2022-12-20T23:27:50.299Z,101121.17
2022-12-20T23:30:22.372Z,101113.16
2022-12-20T23:32:53.629Z,101116.48
2022-12-20T23:35:24.622Z,101110.27
2022-12-20T23:37:56.307Z,101110.41
2022-12-20T23:40:25.786Z,101108.94
2022-12-20T23:42:55.532Z,101110.53
2022-12-20T23:45:25.122Z,101112.08
2022-12-20T23:47:54.942Z,101103.78
2022-12-20T23:50:24.696Z,101112.69
2022-12-20T23:52:54.161Z,101117.38
2022-12-20T23:55:23.701Z,101117.06
2022-12-20T23:57:53.735Z,101117.81
